Nave Celeste — VRZH4 — position and weather

sailwx.info

Track history (hours):
 
Tides and Currents Weather Stations Pressure Air Temp Water Temp Dewpoint Dewpoint Depression Visibility Wind Speed Wind Dir Waves Ship Positions

Nave Celeste

Last reported at 2014-Nov-06 19:14 UTC. Time now 2014-Nov-23 18:36 UTC.
Position N 01°11' E 103°49'.
Warning: this ship's position is 16 days out of date.

Length 333 m; draft 11.6 m.

Type: Ship. MMSI: 477974000.

Date/timePositionNaut miles runAvg speedWind from/ knotsBaromVisibWave heightAir tempDewpointWater temp
2014-Nov-06 19:14N 01°11' E 103°49'6 7.2
2014-Nov-06 18:27N 01°13' E 103°54'2 2.5
2014-Nov-06 17:33N 01°15' E 103°56'0 0.1
2014-Nov-06 16:25N 01°15' E 103°56'0 0.1
2014-Nov-06 15:19N 01°15' E 103°56'0 0.0
2014-Nov-06 13:10N 01°15' E 103°56'0 0.0
2014-Nov-06 12:25N 01°15' E 103°56'0 0.2
2014-Nov-06 10:31N 01°15' E 103°56'0 0.0
2014-Nov-06 08:25N 01°15' E 103°56'0 0.1
2014-Nov-06 07:19N 01°15' E 103°56'0 0.0
2014-Nov-06 06:31N 01°15' E 103°56'0 0.0
2014-Nov-06 04:31N 01°15' E 103°56'0 0.2
2014-Nov-06 03:07N 01°15' E 103°56'0 0.3
2014-Nov-06 02:25N 01°15' E 103°56'0 0.1
2014-Nov-06 01:31N 01°15' E 103°55'0 0.0
2014-Nov-06 00:31N 01°15' E 103°55'0 0.0
2014-Nov-05 22:33N 01°15' E 103°56'2 2.2
2014-Nov-05 21:29N 01°15' E 103°58'6 6.2
2014-Nov-05 20:33N 01°16' E 104°04'1010.2
2014-Nov-05 19:32N 01°18' E 104°14'  
Track history (hours):
 
Tides and Currents Weather Stations Pressure Air Temp Water Temp Dewpoint Dewpoint Depression Visibility Wind Speed Wind Dir Waves Ship Positions

Nave Celeste

Last reported at 2014-Nov-06 19:14 UTC. Time now 2014-Nov-23 18:36 UTC.
Position N 01°11' E 103°49'.
Warning: this ship's position is 16 days out of date.

Length 333 m; draft 11.6 m.

Type: Ship. MMSI: 477974000.

Date/timePositionNaut miles runAvg speedWind from/ knotsBaromVisibWave heightAir tempDewpointWater temp
2014-Nov-06 19:14N 01°11' E 103°49'6 7.2
2014-Nov-06 18:27N 01°13' E 103°54'2 2.5
2014-Nov-06 17:33N 01°15' E 103°56'0 0.1
2014-Nov-06 16:25N 01°15' E 103°56'0 0.1
2014-Nov-06 15:19N 01°15' E 103°56'0 0.0
2014-Nov-06 13:10N 01°15' E 103°56'0 0.0
2014-Nov-06 12:25N 01°15' E 103°56'0 0.2
2014-Nov-06 10:31N 01°15' E 103°56'0 0.0
2014-Nov-06 08:25N 01°15' E 103°56'0 0.1
2014-Nov-06 07:19N 01°15' E 103°56'0 0.0
2014-Nov-06 06:31N 01°15' E 103°56'0 0.0
2014-Nov-06 04:31N 01°15' E 103°56'0 0.2
2014-Nov-06 03:07N 01°15' E 103°56'0 0.3
2014-Nov-06 02:25N 01°15' E 103°56'0 0.1
2014-Nov-06 01:31N 01°15' E 103°55'0 0.0
2014-Nov-06 00:31N 01°15' E 103°55'0 0.0
2014-Nov-05 22:33N 01°15' E 103°56'2 2.2
2014-Nov-05 21:29N 01°15' E 103°58'6 6.2
2014-Nov-05 20:33N 01°16' E 104°04'1010.2
2014-Nov-05 19:32N 01°18' E 104°14'  

Dump ship's entire track history